Time;durP1;ratioP1;P1;durP2;ratioP2;P2;SDS_P1;SDS_P2;PMS_P1;PMS_P2;Temp;Humidity;BMP_temperature;BMP_pressure;BME280_temperature;BME280_humidity;BME280_pressure;Samples;Min_cycle;Max_cycle;Signal;HPM_P1;HPM_P2
2022/12/22 03:25:51;;;;;;;31.75;22.13;;;;;;;;;;5017295;28;20287;-67
2022/12/22 03:28:18;;;;;;;30.92;21.35;;;;;;;;;;5011904;28;20194;-67
2022/12/22 03:30:43;;;;;;;34.13;23.02;;;;;;;;;;5014670;28;20190;-67
2022/12/22 03:33:08;;;;;;;34.08;23.08;;;;;;;;;;5007157;28;20201;-67
2022/12/22 03:35:34;;;;;;;35.13;22.73;;;;;;;;;;5003478;28;20195;-68
2022/12/22 03:38:02;;;;;;;37.20;23.67;;;;;;;;;;5023188;28;20724;-67
2022/12/22 03:40:30;;;;;;;31.27;22.10;;;;;;;;;;5004487;28;20210;-67
2022/12/22 03:48:24;;;;;;;34.40;21.42;;;;;;;;;;5028614;28;20194;-68
2022/12/22 03:50:49;;;;;;;32.45;22.20;;;;;;;;;;5006720;28;20194;-67
2022/12/22 03:53:14;;;;;;;35.63;21.50;;;;;;;;;;5010225;28;20488;-67
2022/12/22 03:55:40;;;;;;;36.90;23.10;;;;;;;;;;4999636;28;20206;-67
2022/12/22 03:58:05;;;;;;;31.30;22.85;;;;;;;;;;5009975;28;20635;-67
2022/12/22 04:00:31;;;;;;;39.92;23.92;;;;;;;;;;4999692;28;20226;-67
2022/12/22 04:02:59;;;;;;;38.80;24.90;;;;;;;;;;5010597;28;20197;-68
2022/12/22 04:05:25;;;;;;;33.35;22.73;;;;;;;;;;5010335;28;20225;-68
2022/12/22 04:07:50;;;;;;;36.97;24.63;;;;;;;;;;5013508;28;20190;-68
2022/12/22 04:12:59;;;;;;;34.85;24.05;;;;;;;;;;4999056;28;20183;-68
2022/12/22 04:15:27;;;;;;;34.45;24.15;;;;;;;;;;5015244;28;20216;-68
2022/12/22 04:17:53;;;;;;;39.15;24.33;;;;;;;;;;5027254;28;20621;-69
2022/12/22 04:20:20;;;;;;;40.95;25.17;;;;;;;;;;5004278;28;20194;-67
2022/12/22 04:22:46;;;;;;;40.80;24.48;;;;;;;;;;5015104;28;20234;-67
2022/12/22 04:25:12;;;;;;;36.58;23.90;;;;;;;;;;5004779;28;20696;-68
2022/12/22 04:27:38;;;;;;;40.28;25.95;;;;;;;;;;5021266;28;20304;-68
2022/12/22 04:30:04;;;;;;;37.53;24.27;;;;;;;;;;5027800;28;20189;-68
2022/12/22 04:32:30;;;;;;;39.45;24.80;;;;;;;;;;5020732;28;20223;-68
2022/12/22 04:34:55;;;;;;;42.65;25.45;;;;;;;;;;5020901;28;20206;-68
2022/12/22 04:37:21;;;;;;;40.50;24.67;;;;;;;;;;5008543;28;20194;-67
2022/12/22 04:39:46;;;;;;;38.72;23.70;;;;;;;;;;5022239;28;20191;-67
2022/12/22 04:42:12;;;;;;;42.67;25.17;;;;;;;;;;5009196;28;20187;-67
2022/12/22 04:44:37;;;;;;;45.53;26.50;;;;;;;;;;5018763;28;20296;-67
2022/12/22 04:47:03;;;;;;;39.03;25.67;;;;;;;;;;5015432;28;20197;-67
2022/12/22 04:49:28;;;;;;;40.20;25.30;;;;;;;;;;5026150;28;20541;-67
2022/12/22 04:51:53;;;;;;;40.30;24.00;;;;;;;;;;5008486;28;20194;-67
2022/12/22 04:54:19;;;;;;;41.80;25.67;;;;;;;;;;5017659;28;20534;-67
2022/12/22 04:56:44;;;;;;;40.88;25.48;;;;;;;;;;5018516;28;20194;-67
2022/12/22 04:59:09;;;;;;;40.10;24.70;;;;;;;;;;5011022;28;20234;-67
2022/12/22 05:01:35;;;;;;;41.30;23.85;;;;;;;;;;5002099;28;20578;-67
2022/12/22 05:04:01;;;;;;;38.88;24.42;;;;;;;;;;5016659;28;20205;-69
2022/12/22 05:06:26;;;;;;;36.70;23.80;;;;;;;;;;5020952;28;20204;-67
2022/12/22 05:08:52;;;;;;;39.20;24.50;;;;;;;;;;5019559;28;20256;-67
2022/12/22 05:11:17;;;;;;;39.45;23.27;;;;;;;;;;5007931;28;20195;-67
2022/12/22 05:13:42;;;;;;;40.45;24.30;;;;;;;;;;4992514;28;20183;-68
2022/12/22 05:16:12;;;;;;;49.38;24.73;;;;;;;;;;5020851;28;20190;-69
2022/12/22 05:18:38;;;;;;;43.83;23.63;;;;;;;;;;5016786;28;20226;-67
2022/12/22 05:21:09;;;;;;;46.20;24.90;;;;;;;;;;5018310;28;20282;-67
2022/12/22 05:23:35;;;;;;;47.35;25.15;;;;;;;;;;5000497;28;20226;-67
2022/12/22 05:26:00;;;;;;;46.53;25.02;;;;;;;;;;5001274;28;20298;-68
2022/12/22 05:28:26;;;;;;;63.00;26.92;;;;;;;;;;5008619;28;20736;-67
2022/12/22 05:30:52;;;;;;;78.70;27.40;;;;;;;;;;5008477;28;20234;-67
2022/12/22 05:33:18;;;;;;;67.93;27.85;;;;;;;;;;5017259;28;20533;-67
2022/12/22 05:35:43;;;;;;;97.95;29.40;;;;;;;;;;5003652;28;20210;-67
2022/12/22 05:38:08;;;;;;;114.80;29.52;;;;;;;;;;5009551;28;20191;-68
2022/12/22 05:40:34;;;;;;;67.07;25.85;;;;;;;;;;5006568;28;20196;-67
2022/12/22 05:42:59;;;;;;;108.50;30.80;;;;;;;;;;5001167;28;20538;-68
2022/12/22 05:45:24;;;;;;;122.78;30.85;;;;;;;;;;5026459;28;20277;-67
2022/12/22 05:47:51;;;;;;;132.68;32.03;;;;;;;;;;5013384;28;20198;-67
2022/12/22 05:50:21;;;;;;;111.65;30.00;;;;;;;;;;5007596;28;20191;-67
2022/12/22 05:52:47;;;;;;;98.82;28.85;;;;;;;;;;4996639;28;20552;-68
2022/12/22 05:55:13;;;;;;;154.93;35.05;;;;;;;;;;5007791;28;20406;-68
2022/12/22 05:57:39;;;;;;;89.20;29.02;;;;;;;;;;5011856;28;20190;-67
2022/12/22 06:00:09;;;;;;;154.25;35.22;;;;;;;;;;5009791;28;20210;-67
2022/12/22 06:02:34;;;;;;;111.60;31.52;;;;;;;;;;5004043;28;20626;-67
2022/12/22 06:05:00;;;;;;;201.63;35.80;;;;;;;;;;5011581;28;20210;-67
2022/12/22 06:07:25;;;;;;;71.10;28.20;;;;;;;;;;5012783;28;20469;-68
2022/12/22 06:09:51;;;;;;;107.72;30.90;;;;;;;;;;5012043;28;20182;-68
2022/12/22 06:12:16;;;;;;;60.95;26.70;;;;;;;;;;5009092;28;20190;-68
2022/12/22 06:14:42;;;;;;;94.28;28.77;;;;;;;;;;5021217;28;20556;-68
2022/12/22 06:17:08;;;;;;;68.78;27.05;;;;;;;;;;5009930;28;20190;-68
2022/12/22 06:19:33;;;;;;;133.23;31.42;;;;;;;;;;5010958;28;20240;-68
2022/12/22 06:21:59;;;;;;;117.25;30.50;;;;;;;;;;5010319;28;20238;-68
2022/12/22 06:24:24;;;;;;;145.15;32.72;;;;;;;;;;5005129;28;20203;-68
2022/12/22 06:26:49;;;;;;;157.18;32.80;;;;;;;;;;5014178;28;20190;-68
2022/12/22 06:29:15;;;;;;;175.15;34.67;;;;;;;;;;5018374;28;20277;-68
2022/12/22 06:31:40;;;;;;;120.93;29.98;;;;;;;;;;5007921;28;20611;-68
2022/12/22 06:34:08;;;;;;;151.68;32.95;;;;;;;;;;5015368;28;20285;-68
2022/12/22 06:36:33;;;;;;;191.40;36.10;;;;;;;;;;5009333;28;20187;-68
2022/12/22 06:38:58;;;;;;;121.22;32.90;;;;;;;;;;5008888;28;20225;-68
2022/12/22 06:44:07;;;;;;;85.20;29.77;;;;;;;;;;5007362;28;20203;-69
2022/12/22 06:46:33;;;;;;;101.57;30.92;;;;;;;;;;5001375;28;20253;-69
2022/12/22 06:48:58;;;;;;;78.75;29.95;;;;;;;;;;5006767;28;20218;-69
2022/12/22 06:51:23;;;;;;;68.07;27.77;;;;;;;;;;5002326;28;20205;-69
2022/12/22 06:53:49;;;;;;;77.70;28.42;;;;;;;;;;5002867;28;20260;-69
2022/12/22 06:56:14;;;;;;;83.07;30.33;;;;;;;;;;5008120;28;20202;-69
2022/12/22 06:58:40;;;;;;;72.65;29.55;;;;;;;;;;5006436;28;20191;-69
2022/12/22 07:01:05;;;;;;;66.18;28.63;;;;;;;;;;5011102;28;20251;-70
2022/12/22 07:03:30;;;;;;;63.25;28.38;;;;;;;;;;5010574;28;20225;-70
2022/12/22 07:05:56;;;;;;;54.55;28.05;;;;;;;;;;5019947;28;20618;-70
2022/12/22 07:08:21;;;;;;;56.60;27.40;;;;;;;;;;5025144;28;20234;-69
2022/12/22 07:10:58;;;;;;;68.93;28.58;;;;;;;;;;5026886;28;20198;-70
2022/12/22 07:13:26;;;;;;;61.50;29.50;;;;;;;;;;5022510;28;20209;-70
2022/12/22 07:15:53;;;;;;;58.90;28.27;;;;;;;;;;5035890;28;20240;-70
2022/12/22 07:18:19;;;;;;;66.07;27.83;;;;;;;;;;5016696;28;20379;-70
2022/12/22 07:20:44;;;;;;;64.00;27.65;;;;;;;;;;5008054;28;20346;-70
2022/12/22 07:23:10;;;;;;;68.70;29.83;;;;;;;;;;5023896;28;20233;-70
2022/12/22 07:25:36;;;;;;;53.92;26.10;;;;;;;;;;5019140;28;20221;-70
2022/12/22 07:28:01;;;;;;;56.92;27.58;;;;;;;;;;5009540;28;20244;-69
2022/12/22 07:30:27;;;;;;;60.42;26.67;;;;;;;;;;5006495;28;20190;-69
2022/12/22 07:32:52;;;;;;;55.47;27.05;;;;;;;;;;5016359;28;20197;-69
2022/12/22 07:35:17;;;;;;;62.85;26.65;;;;;;;;;;5025662;28;20217;-69
2022/12/22 07:37:43;;;;;;;66.95;26.92;;;;;;;;;;5019081;28;20236;-69
2022/12/22 07:40:09;;;;;;;62.80;26.88;;;;;;;;;;5019050;28;20201;-69
2022/12/22 07:42:43;;;;;;;53.28;26.05;;;;;;;;;;5029465;28;20312;-69
2022/12/22 07:45:27;;;;;;;53.58;25.65;;;;;;;;;;4895586;28;10000850;-69
2022/12/22 07:47:58;;;;;;;58.80;27.20;;;;;;;;;;5003232;28;20399;-69
2022/12/22 07:50:24;;;;;;;57.03;26.50;;;;;;;;;;5010871;28;20230;-69
2022/12/22 07:52:54;;;;;;;58.80;27.35;;;;;;;;;;5007792;28;20213;-69
2022/12/22 07:55:20;;;;;;;61.25;26.80;;;;;;;;;;5013707;28;20662;-68
2022/12/22 07:57:45;;;;;;;46.95;23.35;;;;;;;;;;5007700;28;20413;-68
2022/12/22 08:00:12;;;;;;;42.25;21.83;;;;;;;;;;5024982;28;20249;-68
2022/12/22 08:02:38;;;;;;;45.13;21.23;;;;;;;;;;5001576;28;20548;-69
2022/12/22 08:05:03;;;;;;;44.08;22.10;;;;;;;;;;5006647;28;20218;-67
2022/12/22 08:07:30;;;;;;;49.10;23.35;;;;;;;;;;4999653;28;20190;-68
2022/12/22 08:09:55;;;;;;;53.25;24.15;;;;;;;;;;5017161;28;20182;-68
2022/12/22 08:12:21;;;;;;;53.10;24.10;;;;;;;;;;5002954;28;20751;-68
2022/12/22 08:14:47;;;;;;;59.45;25.90;;;;;;;;;;5012073;28;20233;-68
2022/12/22 08:17:12;;;;;;;66.25;28.38;;;;;;;;;;5002109;28;20257;-68
2022/12/22 08:19:38;;;;;;;68.40;28.30;;;;;;;;;;5005767;28;20199;-68
2022/12/22 08:22:03;;;;;;;58.53;25.80;;;;;;;;;;4998397;28;20299;-68
2022/12/22 08:24:28;;;;;;;61.10;27.77;;;;;;;;;;5016444;28;20202;-68
2022/12/22 08:26:58;;;;;;;62.80;26.75;;;;;;;;;;5006183;28;20537;-69
2022/12/22 08:29:32;;;;;;;57.30;26.65;;;;;;;;;;5016546;28;20631;-68
2022/12/22 08:31:59;;;;;;;64.93;27.92;;;;;;;;;;5007067;28;20225;-68
2022/12/22 08:34:24;;;;;;;65.13;28.10;;;;;;;;;;5010303;28;20183;-68
2022/12/22 08:36:54;;;;;;;64.15;28.02;;;;;;;;;;5005642;28;20221;-67
2022/12/22 08:39:21;;;;;;;71.47;27.77;;;;;;;;;;5021336;28;20316;-67
2022/12/22 08:41:50;;;;;;;59.53;25.60;;;;;;;;;;5016957;28;20201;-67
2022/12/22 08:44:22;;;;;;;63.85;27.20;;;;;;;;;;5020378;28;20225;-68
2022/12/22 08:46:48;;;;;;;68.50;28.13;;;;;;;;;;5011077;28;20599;-68
2022/12/22 08:49:13;;;;;;;61.47;28.25;;;;;;;;;;5013676;28;20198;-68
2022/12/22 08:51:39;;;;;;;67.53;27.60;;;;;;;;;;5009361;28;20190;-68
2022/12/22 08:54:04;;;;;;;72.50;27.67;;;;;;;;;;5022233;28;20656;-68
2022/12/22 08:56:30;;;;;;;68.05;28.33;;;;;;;;;;5009723;28;20564;-67
2022/12/22 08:58:56;;;;;;;74.88;29.67;;;;;;;;;;5018561;28;20256;-67
2022/12/22 09:01:22;;;;;;;64.65;26.58;;;;;;;;;;5012915;28;20321;-68
2022/12/22 09:03:51;;;;;;;73.82;29.02;;;;;;;;;;5012955;28;20206;-68
2022/12/22 09:06:19;;;;;;;66.25;29.05;;;;;;;;;;5018066;28;20268;-68
2022/12/22 09:08:46;;;;;;;65.40;28.77;;;;;;;;;;5017909;28;20249;-67
2022/12/22 09:11:11;;;;;;;66.65;29.40;;;;;;;;;;5016990;28;20206;-68
2022/12/22 09:13:37;;;;;;;76.32;30.10;;;;;;;;;;5005307;28;20211;-67
2022/12/22 09:16:06;;;;;;;74.68;29.35;;;;;;;;;;5025081;28;20240;-68
2022/12/22 09:18:32;;;;;;;68.20;26.88;;;;;;;;;;5012775;28;20205;-67
2022/12/22 09:20:58;;;;;;;65.82;27.02;;;;;;;;;;5019193;28;20478;-68
2022/12/22 09:23:23;;;;;;;74.10;28.10;;;;;;;;;;4996572;28;20226;-67
2022/12/22 09:25:49;;;;;;;67.35;29.30;;;;;;;;;;5006782;28;20229;-68
2022/12/22 09:28:14;;;;;;;72.75;29.02;;;;;;;;;;5001713;28;20218;-67
2022/12/22 09:30:39;;;;;;;69.40;27.23;;;;;;;;;;5022699;28;20249;-68
2022/12/22 09:33:05;;;;;;;68.57;27.30;;;;;;;;;;5014108;28;20199;-68
2022/12/22 09:35:30;;;;;;;68.00;27.58;;;;;;;;;;5017331;28;20199;-68
2022/12/22 09:37:56;;;;;;;70.53;26.90;;;;;;;;;;5016518;28;20197;-68
2022/12/22 09:40:23;;;;;;;69.32;28.00;;;;;;;;;;5012182;28;20187;-68
2022/12/22 09:42:49;;;;;;;64.18;26.17;;;;;;;;;;5010767;28;20598;-68
2022/12/22 09:45:18;;;;;;;62.30;26.25;;;;;;;;;;5011417;28;20290;-68
2022/12/22 09:47:52;;;;;;;61.40;25.23;;;;;;;;;;5012701;28;20186;-68
2022/12/22 09:50:22;;;;;;;64.70;25.98;;;;;;;;;;5024714;28;20228;-67
2022/12/22 09:52:57;;;;;;;62.05;26.67;;;;;;;;;;5026779;28;20642;-67
2022/12/22 09:55:23;;;;;;;62.35;24.70;;;;;;;;;;5012830;28;20186;-67
2022/12/22 09:57:49;;;;;;;58.72;25.60;;;;;;;;;;5011152;28;20195;-67
2022/12/22 10:00:18;;;;;;;62.20;24.95;;;;;;;;;;5015451;28;20206;-68
2022/12/22 10:03:06;;;;;;;47.00;21.25;;;;;;;;;;5021624;28;20182;-67
2022/12/22 10:05:56;;;;;;;55.05;22.92;;;;;;;;;;5027794;28;20301;-68
2022/12/22 10:08:28;;;;;;;48.90;22.15;;;;;;;;;;5023269;28;20275;-67
2022/12/22 10:10:55;;;;;;;48.10;21.05;;;;;;;;;;5016270;28;20183;-67
2022/12/22 10:13:21;;;;;;;49.30;20.73;;;;;;;;;;5023594;28;20260;-67
2022/12/22 10:15:47;;;;;;;41.85;19.10;;;;;;;;;;5027314;28;20182;-66
2022/12/22 10:18:17;;;;;;;44.28;19.38;;;;;;;;;;5027882;28;20186;-67
2022/12/22 10:21:05;;;;;;;41.70;18.77;;;;;;;;;;5027920;28;20266;-67
2022/12/22 10:23:34;;;;;;;36.45;18.45;;;;;;;;;;5016006;28;20190;-66
2022/12/22 10:26:07;;;;;;;44.60;19.17;;;;;;;;;;5023078;28;20178;-66
2022/12/22 10:28:40;;;;;;;43.05;18.90;;;;;;;;;;5025540;28;20204;-69
2022/12/22 10:31:12;;;;;;;39.67;18.85;;;;;;;;;;5024130;28;20320;-67
2022/12/22 10:33:38;;;;;;;39.38;20.23;;;;;;;;;;5011004;28;20194;-67
2022/12/22 10:36:05;;;;;;;38.17;19.25;;;;;;;;;;5026166;28;20183;-67
2022/12/22 10:38:34;;;;;;;39.40;20.00;;;;;;;;;;5010559;28;20195;-67
2022/12/22 10:41:18;;;;;;;38.60;19.40;;;;;;;;;;5020258;28;20285;-67
2022/12/22 10:43:54;;;;;;;34.25;18.23;;;;;;;;;;5016505;28;20206;-67
2022/12/22 10:46:31;;;;;;;36.47;18.10;;;;;;;;;;5007801;28;20332;-67
2022/12/22 10:49:20;;;;;;;42.67;19.13;;;;;;;;;;5006247;28;20248;-67
2022/12/22 10:51:50;;;;;;;39.42;19.02;;;;;;;;;;5012318;28;20225;-67
2022/12/22 10:54:34;;;;;;;37.80;18.20;;;;;;;;;;5013774;28;20187;-67
2022/12/22 10:57:19;;;;;;;37.63;18.42;;;;;;;;;;5015893;28;20600;-67
2022/12/22 10:59:48;;;;;;;41.15;19.20;;;;;;;;;;5020860;28;20210;-67
2022/12/22 11:02:23;;;;;;;39.42;18.90;;;;;;;;;;5007141;28;20195;-67
2022/12/22 11:04:50;;;;;;;40.03;18.70;;;;;;;;;;5020037;28;20210;-68
2022/12/22 11:07:15;;;;;;;37.33;18.17;;;;;;;;;;5005806;28;20602;-67
2022/12/22 11:09:41;;;;;;;41.65;17.05;;;;;;;;;;5009575;28;20191;-67
2022/12/22 11:12:29;;;;;;;40.70;17.30;;;;;;;;;;5010345;28;20306;-67
2022/12/22 11:15:02;;;;;;;34.65;16.98;;;;;;;;;;5008255;28;20700;-67
2022/12/22 11:17:42;;;;;;;38.13;17.23;;;;;;;;;;5020859;28;20291;-67
2022/12/22 11:20:38;;;;;;;34.80;16.45;;;;;;;;;;5011665;28;20202;-67
2022/12/22 11:23:24;;;;;;;34.83;17.02;;;;;;;;;;5011384;28;20225;-67
2022/12/22 11:26:13;;;;;;;35.28;14.75;;;;;;;;;;5010263;28;20193;-68
2022/12/22 11:28:54;;;;;;;29.70;14.10;;;;;;;;;;5012863;28;20741;-68
2022/12/22 11:31:31;;;;;;;31.15;13.23;;;;;;;;;;5008211;28;20178;-67
2022/12/22 11:34:14;;;;;;;33.58;13.18;;;;;;;;;;5020838;28;20193;-69
2022/12/22 11:36:53;;;;;;;32.75;14.38;;;;;;;;;;5013377;28;20573;-67
2022/12/22 11:40:01;;;;;;;29.45;13.60;;;;;;;;;;5015229;28;20281;-68
2022/12/22 11:42:49;;;;;;;27.58;12.27;;;;;;;;;;4981600;28;20436;-68
2022/12/22 11:45:54;;;;;;;30.13;12.88;;;;;;;;;;5021599;28;20324;-68
2022/12/22 11:48:42;;;;;;;29.55;13.48;;;;;;;;;;5021033;28;20204;-67
2022/12/22 11:51:30;;;;;;;25.33;12.43;;;;;;;;;;5007913;28;20556;-67
2022/12/22 11:54:29;;;;;;;28.77;13.13;;;;;;;;;;5004498;28;22069;-67
2022/12/22 11:57:09;;;;;;;27.40;13.25;;;;;;;;;;5008263;28;20305;-67
2022/12/22 12:00:14;;;;;;;26.95;12.73;;;;;;;;;;5007597;28;20214;-67
2022/12/22 12:02:45;;;;;;;29.20;13.27;;;;;;;;;;4961170;28;20635;-67
2022/12/22 12:05:41;;;;;;;24.05;12.63;;;;;;;;;;4968343;28;20265;-67
2022/12/22 12:08:32;;;;;;;19.67;11.40;;;;;;;;;;5001066;28;20211;-68
2022/12/22 12:11:17;;;;;;;28.27;11.93;;;;;;;;;;5008936;28;20281;-68
2022/12/22 12:14:26;;;;;;;23.70;11.55;;;;;;;;;;5006400;28;20425;-67
2022/12/22 12:17:22;;;;;;;20.10;10.55;;;;;;;;;;5006603;28;20643;-67
2022/12/22 12:20:31;;;;;;;25.77;10.30;;;;;;;;;;5014547;28;20206;-68
2022/12/22 12:23:34;;;;;;;19.23;9.55;;;;;;;;;;4972376;28;20601;-67
2022/12/22 12:26:18;;;;;;;25.30;10.18;;;;;;;;;;4947312;28;20207;-67
2022/12/22 12:29:07;;;;;;;19.95;9.38;;;;;;;;;;5006440;28;20201;-67
2022/12/22 12:31:38;;;;;;;17.90;8.50;;;;;;;;;;5013605;28;20202;-67
2022/12/22 12:34:11;;;;;;;23.55;8.70;;;;;;;;;;5012829;28;20228;-67
2022/12/22 12:37:09;;;;;;;16.98;8.20;;;;;;;;;;5011673;28;20252;-67
2022/12/22 12:39:53;;;;;;;19.33;8.35;;;;;;;;;;5014333;28;20269;-67
2022/12/22 12:42:33;;;;;;;20.92;9.85;;;;;;;;;;5016234;28;20190;-67
2022/12/22 12:45:01;;;;;;;15.27;7.38;;;;;;;;;;4997200;28;20440;-67
2022/12/22 12:47:30;;;;;;;15.35;7.32;;;;;;;;;;5008226;28;20642;-67
2022/12/22 12:50:29;;;;;;;15.98;7.18;;;;;;;;;;5012022;28;20270;-67
2022/12/22 12:52:54;;;;;;;17.92;7.90;;;;;;;;;;5000159;28;20404;-67
2022/12/22 12:55:29;;;;;;;19.58;8.40;;;;;;;;;;5003962;28;20198;-67
2022/12/22 12:57:55;;;;;;;20.13;8.50;;;;;;;;;;5001527;28;20491;-67
2022/12/22 13:00:30;;;;;;;19.13;7.50;;;;;;;;;;5014467;28;20648;-66
2022/12/22 13:02:56;;;;;;;18.92;8.50;;;;;;;;;;4993549;28;20193;-66
2022/12/22 13:05:32;;;;;;;12.50;6.10;;;;;;;;;;5013337;28;20270;-67
2022/12/22 13:08:17;;;;;;;16.85;5.78;;;;;;;;;;5003626;28;20214;-67
2022/12/22 13:10:55;;;;;;;11.52;5.00;;;;;;;;;;5007836;28;20662;-67
2022/12/22 13:13:20;;;;;;;14.07;5.10;;;;;;;;;;5014106;28;20273;-67
2022/12/22 13:15:47;;;;;;;13.38;5.30;;;;;;;;;;5005204;28;20273;-66
2022/12/22 13:18:22;;;;;;;16.05;5.60;;;;;;;;;;5008300;28;20194;-68
2022/12/22 13:20:54;;;;;;;13.15;5.28;;;;;;;;;;5006778;28;20198;-67
2022/12/22 13:23:20;;;;;;;13.90;5.70;;;;;;;;;;5004309;28;20229;-67
2022/12/22 13:25:54;;;;;;;16.35;5.53;;;;;;;;;;5006077;28;20218;-67
2022/12/22 13:28:22;;;;;;;14.25;4.78;;;;;;;;;;4998453;28;20253;-69
2022/12/22 13:30:52;;;;;;;10.23;3.67;;;;;;;;;;5016695;28;20274;-67
2022/12/22 13:33:21;;;;;;;12.70;2.85;;;;;;;;;;5004634;28;20234;-67
2022/12/22 13:35:48;;;;;;;10.20;3.28;;;;;;;;;;5005238;28;20202;-67
2022/12/22 13:38:32;;;;;;;8.32;2.58;;;;;;;;;;5002123;28;20206;-67
2022/12/22 13:41:01;;;;;;;10.38;3.38;;;;;;;;;;5011817;28;20256;-67
2022/12/22 13:43:28;;;;;;;6.45;2.95;;;;;;;;;;5001226;28;20272;-67
2022/12/22 13:46:00;;;;;;;7.70;3.00;;;;;;;;;;5003551;28;20737;-67
2022/12/22 13:48:47;;;;;;;5.70;2.83;;;;;;;;;;5016560;28;20195;-67
2022/12/22 13:51:16;;;;;;;9.38;3.10;;;;;;;;;;4999916;28;20225;-67
2022/12/22 13:53:45;;;;;;;12.05;3.63;;;;;;;;;;5007453;28;20237;-67
2022/12/22 13:56:18;;;;;;;11.65;3.67;;;;;;;;;;5016078;28;20191;-67
2022/12/22 13:58:46;;;;;;;14.20;4.18;;;;;;;;;;5014213;28;20269;-67
2022/12/22 14:01:16;;;;;;;16.65;5.05;;;;;;;;;;5010542;28;20234;-67
2022/12/22 14:03:50;;;;;;;16.15;6.07;;;;;;;;;;5002611;28;20543;-67
2022/12/22 14:06:31;;;;;;;18.38;5.90;;;;;;;;;;5020264;28;20189;-67
2022/12/22 14:09:09;;;;;;;15.43;5.93;;;;;;;;;;5015903;28;20182;-67
2022/12/22 14:11:35;;;;;;;14.63;7.03;;;;;;;;;;5014736;28;20673;-68
2022/12/22 14:14:05;;;;;;;15.95;7.10;;;;;;;;;;5016910;28;20329;-67
2022/12/22 14:16:30;;;;;;;19.25;7.55;;;;;;;;;;5016253;28;20208;-67
2022/12/22 14:18:55;;;;;;;21.27;8.10;;;;;;;;;;5021420;28;20190;-67
2022/12/22 14:21:21;;;;;;;22.27;9.00;;;;;;;;;;5023422;28;20299;-66
2022/12/22 14:23:47;;;;;;;16.75;9.07;;;;;;;;;;5016547;28;20257;-67
2022/12/22 14:26:17;;;;;;;22.17;8.95;;;;;;;;;;5025166;28;20202;-67
2022/12/22 14:28:49;;;;;;;21.92;10.88;;;;;;;;;;5015115;28;20199;-68
2022/12/22 14:31:16;;;;;;;23.60;11.80;;;;;;;;;;5021981;28;20201;-67
2022/12/22 14:33:53;;;;;;;28.67;12.27;;;;;;;;;;5017633;28;20198;-67
2022/12/22 14:36:22;;;;;;;26.95;13.23;;;;;;;;;;5019174;28;20194;-67
2022/12/22 14:38:56;;;;;;;23.25;13.50;;;;;;;;;;5018173;28;20579;-67
2022/12/22 14:41:42;;;;;;;26.58;13.23;;;;;;;;;;5018357;28;20248;-68
2022/12/22 14:44:19;;;;;;;27.35;14.32;;;;;;;;;;5018729;28;20498;-67
2022/12/22 14:47:02;;;;;;;27.52;15.05;;;;;;;;;;5012314;28;20526;-67
2022/12/22 14:49:27;;;;;;;31.40;15.75;;;;;;;;;;5013511;28;20182;-68
2022/12/22 14:52:05;;;;;;;27.17;15.20;;;;;;;;;;5006168;28;20657;-67
2022/12/22 14:54:30;;;;;;;37.72;16.60;;;;;;;;;;5021886;28;20285;-67
2022/12/22 14:57:08;;;;;;;33.38;18.45;;;;;;;;;;5017287;28;20202;-67
2022/12/22 14:59:34;;;;;;;36.58;19.27;;;;;;;;;;5023741;28;20210;-67
2022/12/22 15:02:22;;;;;;;34.93;20.17;;;;;;;;;;5020232;28;20201;-67
2022/12/22 15:04:47;;;;;;;36.10;19.30;;;;;;;;;;5019480;28;20237;-67
2022/12/22 15:07:19;;;;;;;35.30;19.93;;;;;;;;;;5010992;28;20187;-67
2022/12/22 15:09:46;;;;;;;38.70;20.03;;;;;;;;;;5013823;28;20276;-67
2022/12/22 15:12:15;;;;;;;39.33;20.23;;;;;;;;;;5022109;28;20250;-67
2022/12/22 15:14:41;;;;;;;41.20;21.53;;;;;;;;;;5015337;28;20187;-67
2022/12/22 15:17:18;;;;;;;43.00;20.40;;;;;;;;;;5017662;28;20195;-67
2022/12/22 15:19:44;;;;;;;40.80;20.47;;;;;;;;;;5017387;28;20191;-67
2022/12/22 15:22:10;;;;;;;47.38;21.33;;;;;;;;;;5019748;28;20546;-67
2022/12/22 15:24:36;;;;;;;39.03;20.33;;;;;;;;;;5006830;28;20211;-68
2022/12/22 15:27:01;;;;;;;39.37;19.33;;;;;;;;;;5007578;28;20207;-67
2022/12/22 15:29:26;;;;;;;37.47;17.93;;;;;;;;;;5005694;28;20207;-67
2022/12/22 15:31:52;;;;;;;35.87;18.53;;;;;;;;;;5006351;28;20200;-67
2022/12/22 15:34:24;;;;;;;28.90;15.85;;;;;;;;;;5004126;28;20510;-67
2022/12/22 15:36:50;;;;;;;31.77;16.58;;;;;;;;;;5001257;28;20424;-68
2022/12/22 15:39:17;;;;;;;34.73;16.03;;;;;;;;;;5000982;28;20205;-68
2022/12/22 15:41:43;;;;;;;29.48;16.58;;;;;;;;;;5005477;28;20198;-68
2022/12/22 15:44:09;;;;;;;29.50;17.05;;;;;;;;;;5003928;28;20215;-67
2022/12/22 15:46:36;;;;;;;30.00;16.05;;;;;;;;;;4998758;28;20254;-68
2022/12/22 15:49:02;;;;;;;27.98;15.93;;;;;;;;;;5002312;28;20194;-68
2022/12/22 15:51:30;;;;;;;31.30;16.70;;;;;;;;;;5000913;28;20203;-68
2022/12/22 15:53:57;;;;;;;29.95;16.95;;;;;;;;;;5004717;28;20984;-67
2022/12/22 15:56:25;;;;;;;27.40;16.77;;;;;;;;;;5002032;28;21856;-68
2022/12/22 15:58:52;;;;;;;31.55;17.65;;;;;;;;;;5007697;28;20277;-67
2022/12/22 16:01:17;;;;;;;30.90;17.42;;;;;;;;;;5002149;28;20210;-67
2022/12/22 16:03:42;;;;;;;29.83;16.85;;;;;;;;;;5006046;28;20217;-67
2022/12/22 16:06:12;;;;;;;34.22;17.60;;;;;;;;;;5007967;28;20274;-67
2022/12/22 16:08:40;;;;;;;31.63;17.75;;;;;;;;;;5010583;28;20256;-67
2022/12/22 16:11:07;;;;;;;30.92;18.23;;;;;;;;;;5010617;28;20657;-67
2022/12/22 16:13:34;;;;;;;33.85;16.95;;;;;;;;;;5011905;28;20522;-67
2022/12/22 16:16:00;;;;;;;31.75;18.33;;;;;;;;;;5017146;28;20642;-67
2022/12/22 16:18:26;;;;;;;31.48;19.17;;;;;;;;;;4998254;28;20317;-68
2022/12/22 16:20:52;;;;;;;34.10;18.25;;;;;;;;;;4997043;28;20218;-67
2022/12/22 16:23:21;;;;;;;32.75;18.88;;;;;;;;;;5001943;28;20234;-67
2022/12/22 16:25:47;;;;;;;34.42;19.52;;;;;;;;;;5006155;28;20546;-68
2022/12/22 16:28:18;;;;;;;34.55;19.33;;;;;;;;;;5012854;28;20197;-67
2022/12/22 16:30:44;;;;;;;37.83;20.35;;;;;;;;;;5014051;28;20208;-67
2022/12/22 16:33:11;;;;;;;32.60;19.73;;;;;;;;;;5015391;28;20198;-67
2022/12/22 16:35:37;;;;;;;39.35;20.55;;;;;;;;;;5011988;28;20202;-67
2022/12/22 16:38:02;;;;;;;41.10;22.23;;;;;;;;;;5016738;28;20186;-67
2022/12/22 16:40:30;;;;;;;43.38;22.15;;;;;;;;;;5012573;28;20278;-68
2022/12/22 16:43:01;;;;;;;37.10;21.27;;;;;;;;;;5027988;28;20197;-67
2022/12/22 16:45:29;;;;;;;38.60;21.92;;;;;;;;;;5014062;28;20224;-68
2022/12/22 16:47:58;;;;;;;39.22;22.52;;;;;;;;;;5014290;28;20182;-69
2022/12/22 16:50:31;;;;;;;42.60;23.08;;;;;;;;;;5014145;28;20186;-68
2022/12/22 16:52:59;;;;;;;38.85;23.20;;;;;;;;;;5017427;28;20190;-69
2022/12/22 16:55:24;;;;;;;46.20;23.60;;;;;;;;;;5012715;28;20454;-68
2022/12/22 16:57:50;;;;;;;37.90;23.00;;;;;;;;;;5001081;28;20192;-68
2022/12/22 17:00:18;;;;;;;38.05;23.25;;;;;;;;;;4998510;28;20266;-68
2022/12/22 17:02:47;;;;;;;45.97;24.42;;;;;;;;;;5003775;28;20186;-68
2022/12/22 17:05:24;;;;;;;37.50;23.23;;;;;;;;;;5010855;28;20263;-68
2022/12/22 17:07:50;;;;;;;42.10;24.52;;;;;;;;;;5015245;28;20209;-68
2022/12/22 17:10:16;;;;;;;40.97;24.95;;;;;;;;;;5001090;28;20225;-68
2022/12/22 17:12:42;;;;;;;42.65;24.23;;;;;;;;;;5008988;28;20246;-69
2022/12/22 17:15:15;;;;;;;44.97;24.27;;;;;;;;;;5006640;28;20189;-68
2022/12/22 17:17:41;;;;;;;41.50;24.60;;;;;;;;;;5011034;28;20249;-68
2022/12/22 17:20:08;;;;;;;41.72;25.23;;;;;;;;;;5009914;28;20183;-68
2022/12/22 17:22:41;;;;;;;41.67;24.48;;;;;;;;;;5017301;28;20295;-68
2022/12/22 17:25:14;;;;;;;44.92;25.42;;;;;;;;;;5001812;28;20301;-68
2022/12/22 17:27:39;;;;;;;45.47;25.95;;;;;;;;;;5006755;28;20666;-68
2022/12/22 17:30:13;;;;;;;43.38;25.20;;;;;;;;;;5003170;28;20493;-69
2022/12/22 17:32:39;;;;;;;47.45;25.98;;;;;;;;;;5001805;28;20195;-70
2022/12/22 17:35:04;;;;;;;45.42;25.83;;;;;;;;;;5012410;28;20179;-69
2022/12/22 17:37:29;;;;;;;42.63;25.02;;;;;;;;;;5018733;28;20233;-69
2022/12/22 17:39:59;;;;;;;43.20;26.35;;;;;;;;;;5016020;28;20549;-69
2022/12/22 17:42:25;;;;;;;41.42;25.67;;;;;;;;;;5016422;28;20191;-71
2022/12/22 17:44:51;;;;;;;46.20;26.25;;;;;;;;;;5022809;28;20709;-71
2022/12/22 17:47:22;;;;;;;45.70;27.13;;;;;;;;;;5015631;28;20202;-70
2022/12/22 17:49:47;;;;;;;49.47;28.67;;;;;;;;;;5010106;28;20209;-70
2022/12/22 17:52:21;;;;;;;46.80;27.13;;;;;;;;;;5021718;28;20196;-69
2022/12/22 17:54:48;;;;;;;45.40;26.13;;;;;;;;;;5018054;28;20179;-69
2022/12/22 17:57:26;;;;;;;43.83;25.88;;;;;;;;;;5009496;28;20686;-68
2022/12/22 17:59:52;;;;;;;43.40;25.25;;;;;;;;;;5014046;28;20562;-69
2022/12/22 18:02:19;;;;;;;44.05;25.63;;;;;;;;;;5018340;28;20190;-69
2022/12/22 18:04:46;;;;;;;46.40;25.50;;;;;;;;;;5024182;28;20202;-69
2022/12/22 18:07:14;;;;;;;45.72;24.90;;;;;;;;;;5018205;28;20225;-69
2022/12/22 18:09:40;;;;;;;46.83;24.73;;;;;;;;;;5019231;28;20217;-69
2022/12/22 18:12:19;;;;;;;48.63;26.88;;;;;;;;;;5020915;28;20263;-69